Time;durP1;ratioP1;P1;durP2;ratioP2;P2;SDS_P1;SDS_P2;PMS_P1;PMS_P2;Temp;Humidity;BMP_temperature;BMP_pressure;BME280_temperature;BME280_humidity;BME280_pressure;Samples;Min_cycle;Max_cycle;Signal;HPM_P1;HPM_P2
2024/01/12 00:01:44;;;;;;;0.10;0.10;;;;;;;;;;5070039;28;20071;-72
2024/01/12 00:04:10;;;;;;;0.10;0.10;;;;;;;;;;5070084;28;20052;-72
2024/01/12 00:06:36;;;;;;;0.10;0.10;;;;;;;;;;5070146;28;20066;-71
2024/01/12 00:09:01;;;;;;;0.35;0.35;;;;;;;;;;5069742;28;20029;-72
2024/01/12 00:11:27;;;;;;;0.30;0.30;;;;;;;;;;5069967;28;20032;-72
2024/01/12 00:13:52;;;;;;;0.10;0.10;;;;;;;;;;5069968;28;20337;-72
2024/01/12 00:16:21;;;;;;;0.70;0.70;;;;;;;;;;5070347;28;20089;-72
2024/01/12 00:18:47;;;;;;;0.10;0.10;;;;;;;;;;5073653;28;20029;-72
2024/01/12 00:21:13;;;;;;;0.10;0.10;;;;;;;;;;5069839;28;20055;-73
2024/01/12 00:23:38;;;;;;;0.00;0.00;;;;;;;;;;5070475;28;20102;-71
2024/01/12 00:26:04;;;;;;;0.20;0.20;;;;;;;;;;5073309;28;20037;-72
2024/01/12 00:28:30;;;;;;;0.98;0.98;;;;;;;;;;5073293;28;20372;-70
2024/01/12 00:30:56;;;;;;;0.10;0.10;;;;;;;;;;5072070;28;20043;-72
2024/01/12 00:33:22;;;;;;;0.10;0.10;;;;;;;;;;5073267;28;20108;-73
2024/01/12 00:35:48;;;;;;;0.10;0.10;;;;;;;;;;5073342;28;20468;-72
2024/01/12 00:38:14;;;;;;;0.10;0.10;;;;;;;;;;5071899;28;20035;-73
2024/01/12 00:40:40;;;;;;;0.10;0.10;;;;;;;;;;5073354;28;20028;-73
2024/01/12 00:43:05;;;;;;;0.10;0.10;;;;;;;;;;5073172;28;20029;-71
2024/01/12 00:45:31;;;;;;;0.10;0.10;;;;;;;;;;5073467;28;20025;-72
2024/01/12 00:47:56;;;;;;;0.10;0.10;;;;;;;;;;5073073;28;20028;-72
2024/01/12 00:50:23;;;;;;;0.10;0.10;;;;;;;;;;5072792;28;20044;-71
2024/01/12 00:52:48;;;;;;;0.10;0.10;;;;;;;;;;5072907;28;20025;-72
2024/01/12 00:55:14;;;;;;;0.10;0.10;;;;;;;;;;5073027;28;20043;-72
2024/01/12 00:57:40;;;;;;;0.10;0.10;;;;;;;;;;5073118;28;20035;-71
2024/01/12 01:00:06;;;;;;;0.20;0.20;;;;;;;;;;5072941;28;20460;-72
2024/01/12 01:02:31;;;;;;;0.20;0.20;;;;;;;;;;5072855;28;20033;-72
2024/01/12 01:04:57;;;;;;;0.10;0.10;;;;;;;;;;5073050;28;20027;-71
2024/01/12 01:07:22;;;;;;;0.10;0.10;;;;;;;;;;5073089;28;20024;-71
2024/01/12 01:09:48;;;;;;;0.10;0.10;;;;;;;;;;5072613;28;20082;-71
2024/01/12 01:12:14;;;;;;;0.10;0.10;;;;;;;;;;5072970;28;20021;-71
2024/01/12 01:14:40;;;;;;;0.32;0.32;;;;;;;;;;5073310;28;20028;-70
2024/01/12 01:17:05;;;;;;;0.10;0.10;;;;;;;;;;5073922;28;20031;-71
2024/01/12 01:19:31;;;;;;;0.20;0.20;;;;;;;;;;5073725;28;20087;-71
2024/01/12 01:21:56;;;;;;;0.10;0.10;;;;;;;;;;5072808;28;20059;-72
2024/01/12 01:24:26;;;;;;;0.17;0.17;;;;;;;;;;5072770;28;20020;-71
2024/01/12 01:26:52;;;;;;;0.10;0.10;;;;;;;;;;5073267;28;20037;-71
2024/01/12 01:29:18;;;;;;;0.10;0.10;;;;;;;;;;5076694;28;20028;-72
2024/01/12 01:31:43;;;;;;;0.10;0.10;;;;;;;;;;5076508;28;20107;-72
2024/01/12 01:34:09;;;;;;;0.10;0.10;;;;;;;;;;5076207;28;20039;-72
2024/01/12 01:36:35;;;;;;;0.10;0.10;;;;;;;;;;5076103;28;20029;-71
2024/01/12 01:39:00;;;;;;;0.10;0.10;;;;;;;;;;5076282;28;20043;-71
2024/01/12 01:41:26;;;;;;;0.17;0.17;;;;;;;;;;5076068;28;20039;-71
2024/01/12 01:43:51;;;;;;;0.10;0.10;;;;;;;;;;5076169;28;20025;-71
2024/01/12 01:46:17;;;;;;;0.10;0.10;;;;;;;;;;5075894;28;20082;-73
2024/01/12 01:48:43;;;;;;;0.10;0.10;;;;;;;;;;5076458;28;20094;-71
2024/01/12 01:51:08;;;;;;;0.08;0.08;;;;;;;;;;5075942;28;20438;-72
2024/01/12 01:53:34;;;;;;;0.10;0.10;;;;;;;;;;5075726;28;20024;-74
2024/01/12 01:56:01;;;;;;;0.20;0.20;;;;;;;;;;5075825;28;20071;-72
2024/01/12 01:58:27;;;;;;;0.10;0.10;;;;;;;;;;5075745;28;20059;-72
2024/01/12 02:00:53;;;;;;;0.10;0.10;;;;;;;;;;5075791;28;20067;-73
2024/01/12 02:03:18;;;;;;;0.10;0.10;;;;;;;;;;5075670;28;20475;-72
2024/01/12 02:05:45;;;;;;;0.10;0.10;;;;;;;;;;5075713;28;20025;-73
2024/01/12 02:08:12;;;;;;;0.10;0.10;;;;;;;;;;5084546;28;20034;-73
2024/01/12 02:10:37;;;;;;;0.10;0.10;;;;;;;;;;5094703;28;20132;-73
2024/01/12 02:13:03;;;;;;;14.50;2.72;;;;;;;;;;5095647;28;20523;-73
2024/01/12 02:15:29;;;;;;;0.10;0.10;;;;;;;;;;5094492;28;20483;-74
2024/01/12 02:17:55;;;;;;;0.25;0.25;;;;;;;;;;5094527;28;20027;-73
2024/01/12 02:20:20;;;;;;;0.20;0.20;;;;;;;;;;5095487;28;20111;-74
2024/01/12 02:22:46;;;;;;;0.10;0.10;;;;;;;;;;5095782;28;20031;-73
2024/01/12 02:25:13;;;;;;;0.25;0.25;;;;;;;;;;5095381;28;20032;-72
2024/01/12 02:27:38;;;;;;;0.10;0.10;;;;;;;;;;5095443;28;20032;-72
2024/01/12 02:30:04;;;;;;;0.10;0.10;;;;;;;;;;5095792;28;20178;-72
2024/01/12 02:32:30;;;;;;;0.52;0.52;;;;;;;;;;5095236;28;20597;-72
2024/01/12 02:34:55;;;;;;;0.10;0.10;;;;;;;;;;5095034;28;20119;-74
2024/01/12 02:37:21;;;;;;;0.10;0.10;;;;;;;;;;5095069;28;20491;-72
2024/01/12 02:39:47;;;;;;;0.65;0.65;;;;;;;;;;5094757;28;20372;-73
2024/01/12 02:42:12;;;;;;;0.10;0.10;;;;;;;;;;5093897;28;20165;-72
2024/01/12 02:44:38;;;;;;;0.00;0.00;;;;;;;;;;5095053;28;20060;-72
2024/01/12 02:47:06;;;;;;;0.10;0.10;;;;;;;;;;5095245;28;20028;-72
2024/01/12 02:49:32;;;;;;;0.90;0.82;;;;;;;;;;5094637;28;20048;-73
2024/01/12 02:51:57;;;;;;;0.10;0.10;;;;;;;;;;5095142;28;20051;-73
2024/01/12 02:54:23;;;;;;;0.15;0.15;;;;;;;;;;5093702;28;20526;-72
2024/01/12 02:56:48;;;;;;;0.10;0.10;;;;;;;;;;5083356;28;20086;-72
2024/01/12 02:59:14;;;;;;;3.63;3.42;;;;;;;;;;5074445;28;20027;-72
2024/01/12 03:01:40;;;;;;;0.10;0.10;;;;;;;;;;5074520;28;20025;-72
2024/01/12 03:04:05;;;;;;;0.10;0.10;;;;;;;;;;5074393;28;20031;-72
2024/01/12 03:06:31;;;;;;;0.10;0.10;;;;;;;;;;5074901;28;20025;-73
2024/01/12 03:08:56;;;;;;;0.10;0.10;;;;;;;;;;5074368;28;20024;-72
2024/01/12 03:11:22;;;;;;;0.25;0.25;;;;;;;;;;5074421;28;20442;-72
2024/01/12 03:13:47;;;;;;;0.10;0.10;;;;;;;;;;5074461;28;20034;-72
2024/01/12 03:16:20;;;;;;;0.10;0.10;;;;;;;;;;5076350;28;20024;-72
2024/01/12 03:18:46;;;;;;;0.10;0.10;;;;;;;;;;5076462;28;20031;-72
2024/01/12 03:21:12;;;;;;;0.05;0.05;;;;;;;;;;5073866;28;20464;-72
2024/01/12 03:23:37;;;;;;;0.10;0.10;;;;;;;;;;5074149;28;20040;-72
2024/01/12 03:26:03;;;;;;;0.10;0.10;;;;;;;;;;5074175;28;20571;-72
2024/01/12 03:28:29;;;;;;;0.00;0.00;;;;;;;;;;5074095;28;20032;-71
2024/01/12 03:30:54;;;;;;;0.00;0.00;;;;;;;;;;5074112;28;20024;-72
2024/01/12 03:33:20;;;;;;;0.10;0.10;;;;;;;;;;5073758;28;20032;-72
2024/01/12 03:35:45;;;;;;;0.13;0.13;;;;;;;;;;5074615;28;20353;-72
2024/01/12 03:38:12;;;;;;;0.10;0.10;;;;;;;;;;5074401;28;20425;-72
2024/01/12 03:40:38;;;;;;;0.00;0.00;;;;;;;;;;5072999;28;20472;-72
2024/01/12 03:43:04;;;;;;;0.00;0.00;;;;;;;;;;5073821;28;20490;-71
2024/01/12 03:45:29;;;;;;;0.10;0.10;;;;;;;;;;5072471;28;20024;-73
2024/01/12 03:47:55;;;;;;;0.05;0.05;;;;;;;;;;5073688;28;20112;-73
2024/01/12 03:50:20;;;;;;;0.10;0.10;;;;;;;;;;5073290;28;20036;-72
2024/01/12 03:52:46;;;;;;;0.10;0.10;;;;;;;;;;5073634;28;20383;-71
2024/01/12 03:55:12;;;;;;;0.10;0.10;;;;;;;;;;5073647;28;20024;-72
2024/01/12 03:57:37;;;;;;;1.98;1.88;;;;;;;;;;5073495;28;20471;-72
2024/01/12 04:00:03;;;;;;;0.10;0.10;;;;;;;;;;5073643;28;20027;-72
2024/01/12 04:02:30;;;;;;;0.10;0.10;;;;;;;;;;5074664;28;20039;-71
2024/01/12 04:04:56;;;;;;;0.10;0.10;;;;;;;;;;5089639;28;20399;-71
2024/01/12 04:07:21;;;;;;;0.10;0.10;;;;;;;;;;5090470;28;20088;-72
2024/01/12 04:09:47;;;;;;;0.10;0.10;;;;;;;;;;5089732;28;20024;-74
2024/01/12 04:12:13;;;;;;;0.00;0.00;;;;;;;;;;5088969;28;20036;-72
2024/01/12 04:14:43;;;;;;;0.10;0.10;;;;;;;;;;5090068;28;20032;-72
2024/01/12 04:17:08;;;;;;;0.10;0.10;;;;;;;;;;5089469;28;20060;-73
2024/01/12 04:19:34;;;;;;;0.10;0.10;;;;;;;;;;5089756;28;20056;-72
2024/01/12 04:21:59;;;;;;;0.08;0.08;;;;;;;;;;5089864;28;20028;-71
2024/01/12 04:24:25;;;;;;;0.10;0.10;;;;;;;;;;5089607;28;20059;-72
2024/01/12 04:26:50;;;;;;;0.20;0.20;;;;;;;;;;5089666;28;20028;-73
2024/01/12 04:29:16;;;;;;;0.10;0.10;;;;;;;;;;5089752;28;20028;-73
2024/01/12 04:31:41;;;;;;;0.30;0.30;;;;;;;;;;5089475;28;20032;-72
2024/01/12 04:34:07;;;;;;;0.00;0.00;;;;;;;;;;5089751;28;20468;-73
2024/01/12 04:36:33;;;;;;;0.00;0.00;;;;;;;;;;5089723;28;20032;-72
2024/01/12 04:38:58;;;;;;;0.10;0.10;;;;;;;;;;5089790;28;20021;-72
2024/01/12 04:41:24;;;;;;;0.10;0.10;;;;;;;;;;5089471;28;20062;-72
2024/01/12 04:43:49;;;;;;;0.00;0.00;;;;;;;;;;5089399;28;20028;-71
2024/01/12 04:46:15;;;;;;;0.00;0.00;;;;;;;;;;5089583;28;20066;-74
2024/01/12 04:48:40;;;;;;;0.08;0.08;;;;;;;;;;5089538;28;20055;-74
2024/01/12 04:51:06;;;;;;;0.00;0.00;;;;;;;;;;5089008;28;20061;-73
2024/01/12 04:53:31;;;;;;;0.10;0.10;;;;;;;;;;5089343;28;20020;-73
2024/01/12 04:55:57;;;;;;;0.00;0.00;;;;;;;;;;5089554;28;20471;-72
2024/01/12 04:58:23;;;;;;;0.10;0.10;;;;;;;;;;5089199;28;20051;-72
2024/01/12 05:00:48;;;;;;;0.10;0.10;;;;;;;;;;5089178;28;20060;-72
2024/01/12 05:03:14;;;;;;;0.10;0.10;;;;;;;;;;5093581;28;20059;-71
2024/01/12 05:05:39;;;;;;;0.10;0.10;;;;;;;;;;5093292;28;20024;-74
2024/01/12 05:08:05;;;;;;;0.00;0.00;;;;;;;;;;5092956;28;20020;-74
2024/01/12 05:10:30;;;;;;;0.10;0.10;;;;;;;;;;5093175;28;20024;-71
2024/01/12 05:12:56;;;;;;;0.10;0.10;;;;;;;;;;5093271;28;20372;-72
2024/01/12 05:15:21;;;;;;;0.10;0.10;;;;;;;;;;5094585;28;20036;-71
2024/01/12 05:17:47;;;;;;;0.10;0.10;;;;;;;;;;5093805;28;20028;-72
2024/01/12 05:20:13;;;;;;;0.10;0.10;;;;;;;;;;5074958;28;20480;-72
2024/01/12 05:22:38;;;;;;;0.10;0.10;;;;;;;;;;5092950;28;20111;-72
2024/01/12 05:25:04;;;;;;;0.10;0.10;;;;;;;;;;5091594;28;20058;-73
2024/01/12 05:27:30;;;;;;;0.00;0.00;;;;;;;;;;5091722;28;20016;-73
2024/01/12 05:29:56;;;;;;;0.10;0.10;;;;;;;;;;5084567;28;20043;-72
2024/01/12 05:32:21;;;;;;;0.10;0.10;;;;;;;;;;5092506;28;20035;-71
2024/01/12 05:34:47;;;;;;;0.10;0.10;;;;;;;;;;5092478;28;20034;-72
2024/01/12 05:37:12;;;;;;;0.10;0.10;;;;;;;;;;5091741;28;20031;-72
2024/01/12 05:39:38;;;;;;;0.15;0.15;;;;;;;;;;5088029;28;20081;-71
2024/01/12 05:42:03;;;;;;;0.00;0.00;;;;;;;;;;5093052;28;20039;-71
2024/01/12 05:44:30;;;;;;;0.00;0.00;;;;;;;;;;5092438;28;20059;-71
2024/01/12 05:46:55;;;;;;;0.10;0.10;;;;;;;;;;5092561;28;20039;-72
2024/01/12 05:49:21;;;;;;;0.17;0.17;;;;;;;;;;5074396;28;20052;-72
2024/01/12 05:51:47;;;;;;;0.10;0.10;;;;;;;;;;5092374;28;20475;-71
2024/01/12 05:54:13;;;;;;;0.10;0.10;;;;;;;;;;5092184;28;20036;-73
2024/01/12 05:56:38;;;;;;;0.10;0.10;;;;;;;;;;5092746;28;20375;-72
2024/01/12 05:59:04;;;;;;;0.10;0.10;;;;;;;;;;5092090;28;20447;-73
2024/01/12 06:01:31;;;;;;;0.10;0.10;;;;;;;;;;5089656;28;20075;-73
2024/01/12 06:03:56;;;;;;;0.10;0.10;;;;;;;;;;5090633;28;20076;-73
2024/01/12 06:06:24;;;;;;;0.00;0.00;;;;;;;;;;5089813;28;20036;-72
2024/01/12 06:08:50;;;;;;;0.10;0.10;;;;;;;;;;5082672;28;20106;-74
2024/01/12 06:11:16;;;;;;;0.10;0.10;;;;;;;;;;5077445;28;20036;-74
2024/01/12 06:13:42;;;;;;;0.10;0.10;;;;;;;;;;5079139;28;20081;-72
2024/01/12 06:16:07;;;;;;;0.45;0.45;;;;;;;;;;5070335;28;20115;-73
2024/01/12 06:18:33;;;;;;;0.03;0.03;;;;;;;;;;5080824;28;20093;-72
2024/01/12 06:20:58;;;;;;;0.10;0.10;;;;;;;;;;5086559;28;20032;-73
2024/01/12 06:23:24;;;;;;;0.00;0.00;;;;;;;;;;5089025;28;20027;-76
2024/01/12 06:25:50;;;;;;;0.10;0.10;;;;;;;;;;5071403;28;20032;-72
2024/01/12 06:28:15;;;;;;;0.00;0.00;;;;;;;;;;5071136;28;20065;-76
2024/01/12 06:30:41;;;;;;;0.45;0.45;;;;;;;;;;5071250;28;20032;-72
2024/01/12 06:33:07;;;;;;;0.00;0.00;;;;;;;;;;5071078;28;20025;-72
2024/01/12 06:35:32;;;;;;;0.00;0.00;;;;;;;;;;5070549;28;20028;-72
2024/01/12 06:37:58;;;;;;;0.00;0.00;;;;;;;;;;5069467;28;20087;-74
2024/01/12 06:40:23;;;;;;;0.10;0.10;;;;;;;;;;5069389;28;20025;-73
2024/01/12 06:42:49;;;;;;;0.10;0.10;;;;;;;;;;5068648;28;20121;-77
2024/01/12 06:45:15;;;;;;;0.10;0.10;;;;;;;;;;5080361;28;20029;-74
2024/01/12 06:47:40;;;;;;;0.10;0.10;;;;;;;;;;5070879;28;20025;-72
2024/01/12 06:50:06;;;;;;;0.95;0.95;;;;;;;;;;5070396;28;20048;-73
2024/01/12 06:52:32;;;;;;;0.10;0.10;;;;;;;;;;5070536;28;20384;-73
2024/01/12 06:54:58;;;;;;;0.20;0.20;;;;;;;;;;5070563;28;20086;-73
2024/01/12 06:57:23;;;;;;;0.10;0.10;;;;;;;;;;5070550;28;20042;-72
2024/01/12 06:59:49;;;;;;;0.63;0.63;;;;;;;;;;5070397;28;20058;-73
2024/01/12 07:02:15;;;;;;;0.00;0.00;;;;;;;;;;5070535;28;20024;-73
2024/01/12 07:04:41;;;;;;;0.10;0.10;;;;;;;;;;5070977;28;20046;-73
2024/01/12 07:07:08;;;;;;;0.00;0.00;;;;;;;;;;5070216;28;20524;-74
2024/01/12 07:09:33;;;;;;;0.00;0.00;;;;;;;;;;5070636;28;20024;-74
2024/01/12 07:11:59;;;;;;;0.10;0.10;;;;;;;;;;5071724;28;20402;-75
2024/01/12 07:14:24;;;;;;;0.10;0.10;;;;;;;;;;5072193;28;20036;-72
2024/01/12 07:16:50;;;;;;;0.10;0.10;;;;;;;;;;5070333;28;20020;-73
2024/01/12 07:19:16;;;;;;;0.10;0.10;;;;;;;;;;5070348;28;20389;-73
2024/01/12 07:21:42;;;;;;;0.10;0.10;;;;;;;;;;5070807;28;20456;-76
2024/01/12 07:24:07;;;;;;;0.10;0.10;;;;;;;;;;5070248;28;20025;-73
2024/01/12 07:26:33;;;;;;;0.10;0.10;;;;;;;;;;5068786;28;20077;-73
2024/01/12 07:29:00;;;;;;;0.10;0.10;;;;;;;;;;5070265;28;20055;-73
2024/01/12 07:31:26;;;;;;;0.10;0.10;;;;;;;;;;5070372;28;20028;-73
2024/01/12 07:33:52;;;;;;;0.10;0.10;;;;;;;;;;5068809;28;20036;-74
2024/01/12 07:36:17;;;;;;;1.25;1.17;;;;;;;;;;5070419;28;20486;-73
2024/01/12 07:38:43;;;;;;;0.15;0.15;;;;;;;;;;5073442;28;20490;-71
2024/01/12 07:41:09;;;;;;;0.10;0.10;;;;;;;;;;5090012;28;20066;-70
2024/01/12 07:43:34;;;;;;;0.10;0.10;;;;;;;;;;5090096;28;20031;-71
2024/01/12 07:46:00;;;;;;;0.10;0.10;;;;;;;;;;5090409;28;20102;-72
2024/01/12 07:48:26;;;;;;;0.13;0.13;;;;;;;;;;5090239;28;20119;-74
2024/01/12 07:50:51;;;;;;;0.00;0.00;;;;;;;;;;5090211;28;20483;-72
2024/01/12 07:53:18;;;;;;;0.10;0.10;;;;;;;;;;5089804;28;20391;-71
2024/01/12 07:55:44;;;;;;;0.10;0.10;;;;;;;;;;5089904;28;20038;-71
2024/01/12 07:58:09;;;;;;;0.10;0.10;;;;;;;;;;5090324;28;20063;-72
2024/01/12 08:00:35;;;;;;;0.10;0.10;;;;;;;;;;5085962;28;20103;-70
2024/01/12 08:03:02;;;;;;;0.10;0.10;;;;;;;;;;5072419;28;20035;-71
2024/01/12 08:05:28;;;;;;;0.32;0.32;;;;;;;;;;5087218;28;20035;-73
2024/01/12 08:07:54;;;;;;;0.10;0.10;;;;;;;;;;5085640;28;20030;-72
2024/01/12 08:10:20;;;;;;;0.20;0.20;;;;;;;;;;5070817;28;20429;-70
2024/01/12 08:12:45;;;;;;;0.10;0.10;;;;;;;;;;5071890;28;20041;-71
2024/01/12 08:15:11;;;;;;;0.10;0.10;;;;;;;;;;5084726;28;20397;-72
2024/01/12 08:17:37;;;;;;;1.30;0.80;;;;;;;;;;5083806;28;20017;-72
2024/01/12 08:20:03;;;;;;;0.20;0.20;;;;;;;;;;5078738;28;20089;-71
2024/01/12 08:22:29;;;;;;;0.20;0.20;;;;;;;;;;5069405;28;20064;-71
2024/01/12 08:24:54;;;;;;;0.28;0.28;;;;;;;;;;5075955;28;20104;-74
2024/01/12 08:27:20;;;;;;;0.10;0.10;;;;;;;;;;5080474;28;20375;-72
2024/01/12 08:29:46;;;;;;;0.10;0.10;;;;;;;;;;5085537;28;20044;-73
2024/01/12 08:32:12;;;;;;;0.10;0.10;;;;;;;;;;5089693;28;20528;-71
2024/01/12 08:34:39;;;;;;;0.10;0.10;;;;;;;;;;5085892;28;20028;-72
2024/01/12 08:37:06;;;;;;;4.40;4.13;;;;;;;;;;5071644;28;20013;-71
2024/01/12 08:39:32;;;;;;;0.17;0.17;;;;;;;;;;5074325;28;20099;-72
2024/01/12 08:41:58;;;;;;;3.70;2.95;;;;;;;;;;5084970;28;20190;-76
2024/01/12 08:44:23;;;;;;;0.30;0.30;;;;;;;;;;5086228;28;20483;-71
2024/01/12 08:46:52;;;;;;;0.52;0.52;;;;;;;;;;5093965;28;20023;-71
2024/01/12 08:49:18;;;;;;;0.10;0.10;;;;;;;;;;5091211;28;20048;-71
2024/01/12 08:51:44;;;;;;;1.05;1.05;;;;;;;;;;5078724;28;20492;-72
2024/01/12 08:54:09;;;;;;;0.20;0.20;;;;;;;;;;5073099;28;20624;-74
2024/01/12 08:56:35;;;;;;;0.15;0.15;;;;;;;;;;5073310;28;20036;-74
2024/01/12 08:59:01;;;;;;;0.20;0.20;;;;;;;;;;5072951;28;20107;-71
2024/01/12 09:01:26;;;;;;;0.10;0.10;;;;;;;;;;5073036;28;20444;-71
2024/01/12 09:03:52;;;;;;;0.45;0.45;;;;;;;;;;5073047;28;20035;-70
2024/01/12 09:06:21;;;;;;;0.10;0.10;;;;;;;;;;5073308;28;20024;-75
2024/01/12 09:08:46;;;;;;;0.10;0.10;;;;;;;;;;5073560;28;20028;-71
2024/01/12 09:11:12;;;;;;;0.10;0.10;;;;;;;;;;5073542;28;20047;-72
2024/01/12 09:13:37;;;;;;;0.10;0.10;;;;;;;;;;5074300;28;20051;-73
2024/01/12 09:16:03;;;;;;;0.10;0.10;;;;;;;;;;5074377;28;20020;-71
2024/01/12 09:18:29;;;;;;;0.80;0.80;;;;;;;;;;5072895;28;20021;-71
2024/01/12 09:20:54;;;;;;;2.85;2.55;;;;;;;;;;5071186;28;20078;-71
2024/01/12 09:23:20;;;;;;;0.10;0.10;;;;;;;;;;5082068;28;20024;-70
2024/01/12 09:25:47;;;;;;;0.75;0.57;;;;;;;;;;5092956;28;20032;-71
2024/01/12 09:28:13;;;;;;;0.10;0.10;;;;;;;;;;5091770;28;20064;-72
2024/01/12 09:30:39;;;;;;;0.10;0.10;;;;;;;;;;5093092;28;20406;-70
2024/01/12 09:33:05;;;;;;;4.30;4.03;;;;;;;;;;5091620;28;20043;-72
2024/01/12 09:35:30;;;;;;;2.75;1.38;;;;;;;;;;5081802;28;20162;-72
2024/01/12 09:37:56;;;;;;;0.13;0.13;;;;;;;;;;5072151;28;20115;-72
2024/01/12 09:40:22;;;;;;;0.10;0.10;;;;;;;;;;5072388;28;20025;-71
2024/01/12 09:42:48;;;;;;;2.92;2.72;;;;;;;;;;5078053;28;20020;-71
2024/01/12 09:45:14;;;;;;;0.10;0.10;;;;;;;;;;5079882;28;20391;-71
2024/01/12 09:47:42;;;;;;;0.10;0.10;;;;;;;;;;5089189;28;20024;-70
2024/01/12 09:50:09;;;;;;;0.40;0.40;;;;;;;;;;5090510;28;20380;-72
2024/01/12 09:52:35;;;;;;;3.60;3.33;;;;;;;;;;5090198;28;20119;-73
2024/01/12 09:55:01;;;;;;;0.28;0.28;;;;;;;;;;5090250;28;20035;-72
2024/01/12 09:57:27;;;;;;;0.60;0.60;;;;;;;;;;5090067;28;20028;-74
2024/01/12 09:59:53;;;;;;;0.35;0.35;;;;;;;;;;5090894;28;20483;-71
2024/01/12 10:02:20;;;;;;;0.65;0.65;;;;;;;;;;5091207;28;20099;-72
2024/01/12 10:04:46;;;;;;;0.10;0.10;;;;;;;;;;5072430;28;20024;-70
2024/01/12 10:07:11;;;;;;;0.20;0.20;;;;;;;;;;5091717;28;20123;-73
2024/01/12 10:09:37;;;;;;;0.17;0.17;;;;;;;;;;5091906;28;20024;-72
2024/01/12 10:12:03;;;;;;;0.10;0.10;;;;;;;;;;5092548;28;20044;-71
2024/01/12 10:14:29;;;;;;;0.38;0.38;;;;;;;;;;5091914;28;20020;-71
2024/01/12 10:16:56;;;;;;;1.98;1.05;;;;;;;;;;5091661;28;20031;-72
2024/01/12 10:19:22;;;;;;;0.70;0.70;;;;;;;;;;5092078;28;20035;-71
2024/01/12 10:21:49;;;;;;;1.20;0.43;;;;;;;;;;5091642;28;20065;-72
2024/01/12 10:24:20;;;;;;;0.20;0.20;;;;;;;;;;5091895;28;20035;-72
2024/01/12 10:26:46;;;;;;;0.20;0.20;;;;;;;;;;5091390;28;20028;-74
2024/01/12 10:29:13;;;;;;;0.10;0.10;;;;;;;;;;5091950;28;20114;-71
2024/01/12 10:31:39;;;;;;;0.65;0.65;;;;;;;;;;5091906;28;20038;-71
2024/01/12 10:34:07;;;;;;;0.45;0.45;;;;;;;;;;5091555;28;20038;-72
2024/01/12 10:36:37;;;;;;;0.55;0.50;;;;;;;;;;5074196;28;20032;-71
2024/01/12 10:39:03;;;;;;;0.20;0.20;;;;;;;;;;5091262;28;20024;-71
2024/01/12 10:41:32;;;;;;;0.30;0.30;;;;;;;;;;5091258;28;20112;-71
2024/01/12 10:44:02;;;;;;;0.20;0.20;;;;;;;;;;5089568;28;20028;-71
2024/01/12 10:46:40;;;;;;;0.28;0.28;;;;;;;;;;5071276;28;20047;-73
2024/01/12 10:49:12;;;;;;;0.20;0.20;;;;;;;;;;5070907;28;20095;-71
2024/01/12 10:51:41;;;;;;;0.10;0.10;;;;;;;;;;5069898;28;20028;-72
2024/01/12 10:54:27;;;;;;;0.10;0.10;;;;;;;;;;5069829;28;20093;-70
2024/01/12 10:56:54;;;;;;;0.10;0.10;;;;;;;;;;5070631;28;20404;-74
2024/01/12 10:59:20;;;;;;;0.43;0.43;;;;;;;;;;5070761;28;20092;-71
2024/01/12 11:01:46;;;;;;;0.30;0.30;;;;;;;;;;5071164;28;20020;-70
2024/01/12 11:04:13;;;;;;;0.10;0.10;;;;;;;;;;5070587;28;20025;-72
2024/01/12 11:06:40;;;;;;;0.40;0.40;;;;;;;;;;5070838;28;20107;-70
2024/01/12 11:09:07;;;;;;;0.22;0.22;;;;;;;;;;5069559;28;20032;-70
2024/01/12 11:11:40;;;;;;;0.20;0.20;;;;;;;;;;5068531;28;20029;-70
2024/01/12 11:14:07;;;;;;;0.10;0.10;;;;;;;;;;5074645;28;20041;-70
2024/01/12 11:16:32;;;;;;;1.05;0.95;;;;;;;;;;5077652;28;20028;-71
2024/01/12 11:18:58;;;;;;;0.25;0.25;;;;;;;;;;5070390;28;20020;-71
2024/01/12 11:21:24;;;;;;;0.50;0.50;;;;;;;;;;5069808;28;20154;-71
2024/01/12 11:23:51;;;;;;;0.40;0.32;;;;;;;;;;5073261;28;20036;-72
2024/01/12 11:26:18;;;;;;;1.20;0.88;;;;;;;;;;5080408;28;20111;-71
2024/01/12 11:28:44;;;;;;;0.60;0.60;;;;;;;;;;5070357;28;20471;-71
2024/01/12 11:31:09;;;;;;;1.10;0.52;;;;;;;;;;5076754;28;20043;-72
2024/01/12 11:33:41;;;;;;;0.77;0.65;;;;;;;;;;5073208;28;20036;-71
2024/01/12 11:36:14;;;;;;;0.10;0.10;;;;;;;;;;5076820;28;20039;-71
2024/01/12 11:38:40;;;;;;;0.32;0.32;;;;;;;;;;5077482;28;20017;-71
2024/01/12 11:41:11;;;;;;;5.93;2.83;;;;;;;;;;5069932;28;20029;-71
2024/01/12 11:43:37;;;;;;;0.55;0.52;;;;;;;;;;5070484;28;20537;-75
2024/01/12 11:46:03;;;;;;;0.50;0.50;;;;;;;;;;5070083;28;20028;-71
2024/01/12 11:48:30;;;;;;;0.63;0.63;;;;;;;;;;5070017;28;20468;-72
2024/01/12 11:50:56;;;;;;;0.20;0.20;;;;;;;;;;5069318;28;20147;-72
2024/01/12 11:53:21;;;;;;;0.10;0.10;;;;;;;;;;5074073;28;20115;-71
2024/01/12 11:55:47;;;;;;;0.73;0.57;;;;;;;;;;5088985;28;20788;-70
2024/01/12 11:58:13;;;;;;;1.60;1.17;;;;;;;;;;5089661;28;20123;-71
2024/01/12 12:00:38;;;;;;;2.08;1.58;;;;;;;;;;5079592;28;20480;-71
2024/01/12 12:03:04;;;;;;;0.20;0.20;;;;;;;;;;5073517;28;20053;-70
2024/01/12 12:05:29;;;;;;;0.20;0.20;;;;;;;;;;5087259;28;20032;-70
2024/01/12 12:07:55;;;;;;;2.75;0.80;;;;;;;;;;5089036;28;20058;-72
2024/01/12 12:10:23;;;;;;;1.05;0.95;;;;;;;;;;5086487;28;20024;-72
2024/01/12 12:12:48;;;;;;;0.30;0.30;;;;;;;;;;5088426;28;20042;-70
2024/01/12 12:15:14;;;;;;;0.20;0.20;;;;;;;;;;5089968;28;20475;-71
2024/01/12 12:17:41;;;;;;;0.30;0.30;;;;;;;;;;5088628;28;20361;-71
2024/01/12 12:20:11;;;;;;;0.20;0.20;;;;;;;;;;5088226;28;20028;-69
2024/01/12 12:22:36;;;;;;;;;;;;;;;;;;5090020;28;20031;-71
2024/01/12 12:25:02;;;;;;;0.82;0.82;;;;;;;;;;5088208;28;19908;-70
2024/01/12 12:27:28;;;;;;;0.20;0.20;;;;;;;;;;5089573;28;20024;-70
2024/01/12 12:29:54;;;;;;;0.20;0.20;;;;;;;;;;5087641;28;20032;-70
2024/01/12 12:32:20;;;;;;;0.30;0.30;;;;;;;;;;5080067;28;20032;-69
2024/01/12 12:34:46;;;;;;;0.73;0.52;;;;;;;;;;5069164;28;20143;-71
2024/01/12 12:37:16;;;;;;;0.70;0.70;;;;;;;;;;5068046;28;20032;-69
2024/01/12 12:39:42;;;;;;;1.65;1.15;;;;;;;;;;5068201;28;20021;-71
2024/01/12 12:42:08;;;;;;;0.43;0.43;;;;;;;;;;5069123;28;20512;-71
2024/01/12 12:44:35;;;;;;;0.30;0.30;;;;;;;;;;5069102;28;20025;-71
2024/01/12 12:47:07;;;;;;;0.30;0.30;;;;;;;;;;5079067;28;20357;-70
2024/01/12 12:49:36;;;;;;;0.30;0.30;;;;;;;;;;5089015;28;20047;-71
2024/01/12 12:52:03;;;;;;;0.30;0.30;;;;;;;;;;5085063;28;20097;-70
2024/01/12 12:54:30;;;;;;;0.30;0.30;;;;;;;;;;5090086;28;20036;-70
2024/01/12 12:56:56;;;;;;;0.30;0.30;;;;;;;;;;5089241;28;20476;-70
2024/01/12 12:59:21;;;;;;;1.10;1.00;;;;;;;;;;5089333;28;20375;-70
2024/01/12 13:01:47;;;;;;;0.63;0.52;;;;;;;;;;5086785;28;20020;-73
2024/01/12 13:04:13;;;;;;;0.50;0.50;;;;;;;;;;5089175;28;20032;-70
2024/01/12 13:06:39;;;;;;;0.20;0.20;;;;;;;;;;5089129;28;20077;-70
2024/01/12 13:09:06;;;;;;;0.90;0.90;;;;;;;;;;5079213;28;20436;-71
2024/01/12 13:11:32;;;;;;;0.30;0.30;;;;;;;;;;5075211;28;20032;-71
2024/01/12 13:13:58;;;;;;;0.70;0.70;;;;;;;;;;5074902;28;20043;-70
2024/01/12 13:16:23;;;;;;;0.20;0.20;;;;;;;;;;5068848;28;20028;-75
2024/01/12 13:18:49;;;;;;;0.30;0.30;;;;;;;;;;5077913;28;20081;-70
2024/01/12 13:21:14;;;;;;;0.60;0.45;;;;;;;;;;5088949;28;20115;-70
2024/01/12 13:23:40;;;;;;;0.30;0.30;;;;;;;;;;5092519;28;20057;-70
2024/01/12 13:26:06;;;;;;;0.30;0.30;;;;;;;;;;5091921;28;20035;-71
2024/01/12 13:28:32;;;;;;;0.30;0.30;;;;;;;;;;5092910;28;20506;-70
2024/01/12 13:30:59;;;;;;;0.30;0.30;;;;;;;;;;5091546;28;20152;-69
2024/01/12 13:33:25;;;;;;;0.20;0.20;;;;;;;;;;5092535;28;20032;-69
2024/01/12 13:35:51;;;;;;;0.80;0.65;;;;;;;;;;5092461;28;20114;-70
2024/01/12 13:38:16;;;;;;;0.20;0.20;;;;;;;;;;5091239;28;20551;-76
2024/01/12 13:40:42;;;;;;;0.40;0.40;;;;;;;;;;5092974;28;20032;-71
2024/01/12 13:43:07;;;;;;;0.82;0.80;;;;;;;;;;5091232;28;20069;-72
2024/01/12 13:45:35;;;;;;;0.20;0.20;;;;;;;;;;5092458;28;20050;-70
2024/01/12 13:48:08;;;;;;;0.40;0.40;;;;;;;;;;5091545;28;20059;-70
2024/01/12 13:50:34;;;;;;;0.22;0.22;;;;;;;;;;5092277;28;20047;-70
2024/01/12 13:53:01;;;;;;;0.45;0.45;;;;;;;;;;5092141;28;20540;-69
2024/01/12 13:55:27;;;;;;;0.22;0.22;;;;;;;;;;5090918;28;20085;-74
2024/01/12 13:57:53;;;;;;;0.88;0.60;;;;;;;;;;5090800;28;20123;-75
2024/01/12 14:00:19;;;;;;;0.20;0.20;;;;;;;;;;5092246;28;20119;-71
2024/01/12 14:02:45;;;;;;;0.38;0.38;;;;;;;;;;5092172;28;20499;-75
2024/01/12 14:05:11;;;;;;;0.20;0.20;;;;;;;;;;5092830;28;20020;-70
2024/01/12 14:07:37;;;;;;;0.22;0.22;;;;;;;;;;5092020;28;20470;-70
2024/01/12 14:10:03;;;;;;;0.70;0.70;;;;;;;;;;5091950;28;20103;-70
2024/01/12 14:12:29;;;;;;;0.90;0.90;;;;;;;;;;5092298;28;20067;-70
2024/01/12 14:14:55;;;;;;;0.50;0.50;;;;;;;;;;5092043;28;20027;-70
2024/01/12 14:17:20;;;;;;;0.15;0.15;;;;;;;;;;5091691;28;20371;-75
2024/01/12 14:19:46;;;;;;;0.20;0.20;;;;;;;;;;5091973;28;20024;-74
2024/01/12 14:22:13;;;;;;;0.20;0.20;;;;;;;;;;5091531;28;20035;-71
2024/01/12 14:24:39;;;;;;;0.30;0.30;;;;;;;;;;5091639;28;20103;-75
2024/01/12 14:27:04;;;;;;;0.20;0.20;;;;;;;;;;5091298;28;20110;-71
2024/01/12 14:29:30;;;;;;;0.57;0.57;;;;;;;;;;5091601;28;20024;-71
2024/01/12 14:31:56;;;;;;;0.20;0.20;;;;;;;;;;5090472;28;20028;-71
2024/01/12 14:34:21;;;;;;;0.30;0.30;;;;;;;;;;5079833;28;20056;-71
2024/01/12 14:36:47;;;;;;;0.22;0.22;;;;;;;;;;5080932;28;20019;-75